createdAt,value
2019-03-13T00:00:57.227Z,90.30
2019-03-13T00:02:11.775Z,90.10
2019-03-13T00:03:16.500Z,89.70
2019-03-13T00:04:21.175Z,88.90
2019-03-13T00:05:25.952Z,88.80
2019-03-13T00:06:30.695Z,89.00
2019-03-13T00:07:36.097Z,88.80
2019-03-13T00:08:43.648Z,88.70
2019-03-13T00:09:49.116Z,88.80
2019-03-13T00:10:53.720Z,88.80
2019-03-13T00:11:58.292Z,88.40
2019-03-13T00:13:03.365Z,88.80
2019-03-13T00:14:08.066Z,89.20
2019-03-13T00:15:13.444Z,90.00
2019-03-13T00:16:18.265Z,89.70
2019-03-13T00:17:22.903Z,89.70
2019-03-13T00:18:27.552Z,90.50
2019-03-13T00:19:32.339Z,90.20
2019-03-13T00:20:39.662Z,90.20
2019-03-13T00:21:44.231Z,90.30
2019-03-13T00:22:48.823Z,90.10
2019-03-13T00:23:53.398Z,90.10
2019-03-13T00:24:58.009Z,90.20
2019-03-13T00:26:02.567Z,90.30
2019-03-13T00:27:07.202Z,90.00
2019-03-13T00:28:11.750Z,90.20
2019-03-13T00:29:16.386Z,90.00
2019-03-13T00:30:21.042Z,89.80
2019-03-13T00:31:25.617Z,89.40
2019-03-13T00:32:30.171Z,89.50
2019-03-13T00:33:34.787Z,89.30
2019-03-13T00:34:39.389Z,89.50
2019-03-13T00:35:43.992Z,90.00
2019-03-13T00:36:48.604Z,89.70
2019-03-13T00:37:53.196Z,89.30
2019-03-13T00:38:57.789Z,89.50
2019-03-13T00:40:02.400Z,89.80
2019-03-13T00:41:07.006Z,89.40
2019-03-13T00:42:11.582Z,89.60
2019-03-13T00:43:16.163Z,89.30
2019-03-13T00:44:20.724Z,88.90
2019-03-13T00:45:25.300Z,89.00
2019-03-13T00:46:29.903Z,88.10
2019-03-13T00:47:34.463Z,87.80
2019-03-13T00:48:39.077Z,87.70
2019-03-13T00:49:43.679Z,87.50
2019-03-13T00:50:48.299Z,87.10
2019-03-13T00:51:52.916Z,86.50
2019-03-13T00:52:57.739Z,86.40
2019-03-13T00:54:02.412Z,86.40
2019-03-13T00:55:07.178Z,86.10
2019-03-13T00:56:11.758Z,86.30
2019-03-13T00:57:16.355Z,86.40
2019-03-13T00:58:20.963Z,86.50
2019-03-13T00:59:25.554Z,86.30
2019-03-13T01:00:43.527Z,86.50
2019-03-13T01:01:59.941Z,85.80
2019-03-13T01:03:05.013Z,86.00
2019-03-13T01:04:16.944Z,85.70
2019-03-13T01:05:26.214Z,85.70
2019-03-13T01:06:34.237Z,85.50
2019-03-13T01:07:38.959Z,85.50
2019-03-13T01:08:43.566Z,85.30
2019-03-13T01:09:48.228Z,85.70
2019-03-13T01:10:52.780Z,85.70
2019-03-13T01:11:57.424Z,85.90
2019-03-13T01:13:03.141Z,85.90
2019-03-13T01:14:07.770Z,85.30
2019-03-13T01:15:13.551Z,85.10
2019-03-13T01:16:18.137Z,85.10
2019-03-13T01:17:22.741Z,85.10
2019-03-13T01:18:27.327Z,84.70
2019-03-13T01:19:32.016Z,84.70
2019-03-13T01:20:37.580Z,84.90
2019-03-13T01:21:42.171Z,84.50
2019-03-13T01:22:46.741Z,84.30
2019-03-13T01:23:51.300Z,84.20
2019-03-13T01:24:55.962Z,84.40
2019-03-13T01:26:00.530Z,84.10
2019-03-13T01:27:05.100Z,84.30
2019-03-13T01:28:09.659Z,84.30
2019-03-13T01:29:14.292Z,84.20
2019-03-13T01:30:18.980Z,84.10
2019-03-13T01:31:36.347Z,84.30
2019-03-13T01:32:48.037Z,84.20
2019-03-13T01:33:56.280Z,84.60
2019-03-13T01:35:05.611Z,84.60
2019-03-13T01:36:10.203Z,84.60
2019-03-13T01:37:14.792Z,84.50
2019-03-13T01:38:19.387Z,84.60
2019-03-13T01:39:23.958Z,85.30
2019-03-13T01:40:28.516Z,85.40
2019-03-13T01:41:33.094Z,85.30
2019-03-13T01:42:37.699Z,85.80
2019-03-13T01:43:42.273Z,86.20
2019-03-13T01:44:46.945Z,86.00
2019-03-13T01:45:51.506Z,85.90
2019-03-13T01:46:56.117Z,86.10
2019-03-13T01:48:00.712Z,87.30
2019-03-13T01:49:05.337Z,88.60
2019-03-13T01:50:10.017Z,89.40
2019-03-13T01:51:14.564Z,90.10
2019-03-13T01:52:19.144Z,90.30
2019-03-13T01:53:23.724Z,90.30
2019-03-13T01:54:28.371Z,90.80
2019-03-13T01:55:32.983Z,90.70
2019-03-13T01:56:37.547Z,91.30
2019-03-13T01:57:42.172Z,92.10
2019-03-13T01:58:46.750Z,92.80
2019-03-13T01:59:51.363Z,93.00
2019-03-13T02:00:57.019Z,93.00
2019-03-13T02:02:01.708Z,93.00
2019-03-13T02:03:07.240Z,92.90
2019-03-13T02:04:12.002Z,92.80
2019-03-13T02:05:16.847Z,93.30
2019-03-13T02:06:21.440Z,94.70
2019-03-13T02:07:26.087Z,95.50
2019-03-13T02:08:30.720Z,96.00
2019-03-13T02:09:35.274Z,96.90
2019-03-13T02:10:39.917Z,97.60
2019-03-13T02:11:44.480Z,98.90
2019-03-13T02:12:49.099Z,99.90
2019-03-13T02:13:53.691Z,99.90
2019-03-13T02:14:58.285Z,99.90
2019-03-13T02:16:02.871Z,99.90
2019-03-13T02:17:07.542Z,99.90
2019-03-13T02:18:12.153Z,99.90
2019-03-13T02:19:16.833Z,99.90
2019-03-13T02:20:21.505Z,99.90
2019-03-13T02:21:26.149Z,99.90
2019-03-13T02:22:30.933Z,99.90
2019-03-13T02:23:35.511Z,99.90
2019-03-13T02:24:40.262Z,99.90
2019-03-13T02:25:44.839Z,99.90
2019-03-13T02:26:49.424Z,99.90
2019-03-13T02:27:54.000Z,99.90
2019-03-13T02:28:58.549Z,99.90
2019-03-13T02:30:03.221Z,99.90
2019-03-13T02:31:08.143Z,99.90
2019-03-13T02:32:12.718Z,99.90
2019-03-13T02:33:17.338Z,99.90
2019-03-13T02:34:22.394Z,99.90
2019-03-13T02:35:27.317Z,99.90
2019-03-13T02:36:31.888Z,99.90
2019-03-13T02:37:36.585Z,99.90
2019-03-13T02:38:41.375Z,99.90
2019-03-13T02:39:47.110Z,99.90
2019-03-13T02:40:51.749Z,99.90
2019-03-13T02:41:56.345Z,99.90
2019-03-13T02:43:01.262Z,99.90
2019-03-13T02:44:05.918Z,99.90
2019-03-13T02:45:10.649Z,99.90
2019-03-13T02:46:15.243Z,99.90
2019-03-13T02:47:20.003Z,99.90
2019-03-13T02:48:24.716Z,99.90
2019-03-13T02:49:29.305Z,99.90
2019-03-13T02:50:33.855Z,99.90
2019-03-13T02:51:38.473Z,99.90
2019-03-13T02:52:43.063Z,99.90
2019-03-13T02:53:47.656Z,99.90
2019-03-13T02:54:52.238Z,99.90
2019-03-13T02:55:56.823Z,99.90
2019-03-13T02:57:01.547Z,99.90
2019-03-13T02:58:06.144Z,99.90
2019-03-13T02:59:10.727Z,99.90
2019-03-13T03:00:16.942Z,99.90
2019-03-13T03:01:25.997Z,99.90
2019-03-13T03:02:43.480Z,99.90
2019-03-13T03:03:51.344Z,99.90
2019-03-13T03:04:56.808Z,99.90
2019-03-13T03:06:01.657Z,99.90
2019-03-13T03:07:06.240Z,99.90
2019-03-13T03:08:10.864Z,99.90
2019-03-13T03:09:15.542Z,99.90
2019-03-13T03:10:20.268Z,99.90
2019-03-13T03:11:24.920Z,99.90
2019-03-13T03:12:29.599Z,99.90
2019-03-13T03:13:34.184Z,99.90
2019-03-13T03:14:39.138Z,99.90
2019-03-13T03:15:44.721Z,99.90
2019-03-13T03:16:49.434Z,99.90
2019-03-13T03:17:54.118Z,99.90
2019-03-13T03:18:58.703Z,99.90
2019-03-13T03:20:03.680Z,99.90
2019-03-13T03:21:08.673Z,99.90
2019-03-13T03:22:18.132Z,99.90
2019-03-13T03:23:22.775Z,99.90
2019-03-13T03:24:27.425Z,99.90
2019-03-13T03:25:31.974Z,99.90
2019-03-13T03:26:36.611Z,99.90
2019-03-13T03:27:41.254Z,99.90
2019-03-13T03:28:46.961Z,99.90
2019-03-13T03:29:51.593Z,99.90
2019-03-13T03:30:56.168Z,99.90
2019-03-13T03:32:00.774Z,99.90
2019-03-13T03:33:05.423Z,99.90
2019-03-13T03:34:10.084Z,99.90
2019-03-13T03:35:14.700Z,99.90
2019-03-13T03:36:19.468Z,99.90
2019-03-13T03:37:24.146Z,99.90
2019-03-13T03:38:28.851Z,99.90
2019-03-13T03:39:33.454Z,99.90
2019-03-13T03:40:38.052Z,99.90
2019-03-13T03:41:42.730Z,99.90
2019-03-13T03:42:47.389Z,99.90
2019-03-13T03:43:53.090Z,99.90
2019-03-13T03:45:03.643Z,99.90
2019-03-13T03:46:08.229Z,99.90
2019-03-13T03:47:12.800Z,99.90
2019-03-13T03:48:17.396Z,99.90
2019-03-13T03:49:22.009Z,99.90
2019-03-13T03:50:26.625Z,99.90
2019-03-13T03:51:31.192Z,99.90
2019-03-13T03:52:35.755Z,99.90
2019-03-13T03:53:40.708Z,99.90
2019-03-13T03:54:45.592Z,99.90
2019-03-13T03:55:50.481Z,99.90
2019-03-13T03:56:55.383Z,99.90
2019-03-13T03:58:00.210Z,99.90
2019-03-13T03:59:05.275Z,99.90
2019-03-13T04:00:10.590Z,99.90
2019-03-13T04:01:15.627Z,99.90
2019-03-13T04:02:20.459Z,99.90
2019-03-13T04:03:25.557Z,99.90
2019-03-13T04:04:30.506Z,99.90
2019-03-13T04:05:35.695Z,99.90
2019-03-13T04:06:40.536Z,99.90
2019-03-13T04:07:45.622Z,99.90
2019-03-13T04:08:50.274Z,99.90
2019-03-13T04:09:54.981Z,99.90
2019-03-13T04:10:59.794Z,99.90
2019-03-13T04:12:04.759Z,99.90
2019-03-13T04:13:09.645Z,99.90
2019-03-13T04:14:14.488Z,99.90
2019-03-13T04:15:19.431Z,99.90
2019-03-13T04:16:24.348Z,99.90
2019-03-13T04:17:29.365Z,99.90
2019-03-13T04:18:34.254Z,99.90
2019-03-13T04:19:39.187Z,99.90
2019-03-13T04:20:45.033Z,99.90
2019-03-13T04:21:49.902Z,99.90
2019-03-13T04:22:54.796Z,99.90
2019-03-13T04:23:59.574Z,99.90
2019-03-13T04:25:30.654Z,99.90
2019-03-13T04:26:35.730Z,99.90
2019-03-13T04:27:41.922Z,99.90
2019-03-13T04:28:46.835Z,99.90
2019-03-13T04:29:51.730Z,99.90
2019-03-13T04:30:56.744Z,99.90
2019-03-13T04:32:01.804Z,99.90
2019-03-13T04:33:07.804Z,99.90
2019-03-13T04:34:12.814Z,99.90
2019-03-13T04:35:17.491Z,99.90
2019-03-13T04:36:22.214Z,99.90
2019-03-13T04:37:26.898Z,99.90
2019-03-13T04:38:31.459Z,99.90
2019-03-13T04:39:36.048Z,99.90
2019-03-13T04:40:40.644Z,99.90
2019-03-13T04:41:45.485Z,99.90
2019-03-13T04:42:50.978Z,99.90
2019-03-13T04:43:56.063Z,99.90
2019-03-13T04:45:00.947Z,99.90
2019-03-13T04:46:07.182Z,99.90
2019-03-13T04:47:12.157Z,99.90
2019-03-13T04:48:17.079Z,99.90
2019-03-13T04:49:23.066Z,99.90
2019-03-13T04:50:27.679Z,99.90
2019-03-13T04:51:32.269Z,99.90
2019-03-13T04:52:37.106Z,99.90
2019-03-13T04:53:42.171Z,99.90
2019-03-13T04:54:46.970Z,99.90
2019-03-13T04:55:52.713Z,99.90
2019-03-13T04:56:57.953Z,99.90
2019-03-13T04:58:02.675Z,99.90
2019-03-13T04:59:07.455Z,99.90
2019-03-13T05:00:13.201Z,99.90
2019-03-13T05:01:17.766Z,99.90
2019-03-13T05:02:22.328Z,99.90
2019-03-13T05:03:26.976Z,99.90
2019-03-13T05:04:31.756Z,99.90
2019-03-13T05:05:50.635Z,99.90
2019-03-13T05:06:55.300Z,99.90
2019-03-13T05:07:59.872Z,99.90
2019-03-13T05:09:13.441Z,99.90
2019-03-13T05:10:18.357Z,99.90
2019-03-13T05:11:23.295Z,99.90
2019-03-13T05:12:28.247Z,99.90
2019-03-13T05:13:32.805Z,99.90
2019-03-13T05:14:37.807Z,99.90
2019-03-13T05:15:42.461Z,99.90
2019-03-13T05:16:47.065Z,99.90
2019-03-13T05:17:51.627Z,99.90
2019-03-13T05:18:56.386Z,99.90
2019-03-13T05:20:01.040Z,99.90
2019-03-13T05:21:05.663Z,99.90
2019-03-13T05:22:10.238Z,99.90
2019-03-13T05:23:14.833Z,99.90
2019-03-13T05:24:19.803Z,99.90
2019-03-13T05:25:24.421Z,99.90
2019-03-13T05:26:29.411Z,99.90
2019-03-13T05:27:34.005Z,99.90
2019-03-13T05:28:38.956Z,99.90
2019-03-13T05:29:43.685Z,99.90
2019-03-13T05:30:48.433Z,99.90
2019-03-13T05:31:53.043Z,99.90
2019-03-13T05:32:57.978Z,99.90
2019-03-13T05:34:03.636Z,99.90
2019-03-13T05:35:08.301Z,99.90
2019-03-13T05:36:16.296Z,99.90
2019-03-13T05:37:19.317Z,99.90
2019-03-13T05:38:23.896Z,99.90
2019-03-13T05:39:28.661Z,99.90
2019-03-13T05:40:33.340Z,99.90
2019-03-13T05:41:43.600Z,99.90
2019-03-13T05:42:48.208Z,99.90
2019-03-13T05:43:52.799Z,99.90
2019-03-13T05:44:57.389Z,99.90
2019-03-13T05:46:02.003Z,99.90
2019-03-13T05:47:07.996Z,99.90
2019-03-13T05:48:12.586Z,99.90
2019-03-13T05:49:17.198Z,99.90
2019-03-13T05:50:21.776Z,99.90
2019-03-13T05:51:26.451Z,99.90
2019-03-13T05:52:31.024Z,99.90
2019-03-13T05:53:35.619Z,99.90
2019-03-13T05:54:40.419Z,99.90
2019-03-13T05:55:45.791Z,99.90
2019-03-13T05:56:51.007Z,99.90
2019-03-13T05:57:56.224Z,99.90
2019-03-13T05:59:01.314Z,99.90
2019-03-13T06:00:07.432Z,99.90
2019-03-13T06:01:12.020Z,99.90
2019-03-13T06:02:16.684Z,99.90
2019-03-13T06:03:21.393Z,99.90
2019-03-13T06:04:26.955Z,99.90
2019-03-13T06:05:31.571Z,99.90
2019-03-13T06:06:36.132Z,99.90
2019-03-13T06:07:40.735Z,99.90
2019-03-13T06:08:45.400Z,99.90
2019-03-13T06:09:50.054Z,99.90
2019-03-13T06:10:54.641Z,99.90
2019-03-13T06:11:59.249Z,99.90
2019-03-13T06:13:03.856Z,99.90
2019-03-13T06:14:09.557Z,99.90
2019-03-13T06:15:14.180Z,99.90
2019-03-13T06:16:18.748Z,99.90
2019-03-13T06:17:23.485Z,99.90
2019-03-13T06:18:28.087Z,99.90
2019-03-13T06:19:32.737Z,99.90
2019-03-13T06:20:37.556Z,99.90
2019-03-13T06:21:43.239Z,99.90
2019-03-13T06:22:47.795Z,99.90
2019-03-13T06:23:52.391Z,99.90
2019-03-13T06:24:57.191Z,99.90
2019-03-13T06:26:01.852Z,99.90
2019-03-13T06:27:06.487Z,99.90
2019-03-13T06:28:11.240Z,99.90
2019-03-13T06:29:15.866Z,99.90
2019-03-13T06:30:21.563Z,99.90
2019-03-13T06:31:26.169Z,99.90
2019-03-13T06:32:30.794Z,99.90
2019-03-13T06:33:35.400Z,99.90
2019-03-13T06:34:39.978Z,99.90
2019-03-13T06:35:44.671Z,99.90
2019-03-13T06:36:50.372Z,99.90
2019-03-13T06:37:55.011Z,99.90
2019-03-13T06:38:59.576Z,99.90
2019-03-13T06:40:06.767Z,99.90
2019-03-13T06:41:12.798Z,99.90
2019-03-13T06:42:17.351Z,99.90
2019-03-13T06:43:21.979Z,99.90
2019-03-13T06:44:26.598Z,99.90
2019-03-13T06:45:31.217Z,99.90
2019-03-13T06:46:35.851Z,99.90
2019-03-13T06:47:40.423Z,99.90
2019-03-13T06:48:45.019Z,99.90
2019-03-13T06:49:49.612Z,99.90
2019-03-13T06:50:54.187Z,99.90
2019-03-13T06:51:58.801Z,99.90
2019-03-13T06:53:03.365Z,99.90
2019-03-13T06:54:07.971Z,99.90
2019-03-13T06:55:12.646Z,99.90
2019-03-13T06:56:17.336Z,99.90
2019-03-13T06:57:21.980Z,99.90
2019-03-13T06:58:48.177Z,99.90
2019-03-13T07:00:20.797Z,99.90
2019-03-13T07:01:43.301Z,99.90
2019-03-13T07:03:10.943Z,99.90
2019-03-13T07:04:34.693Z,99.90
2019-03-13T07:06:05.597Z,99.90
2019-03-13T07:07:27.926Z,99.90
2019-03-13T07:08:57.719Z,99.90
2019-03-13T07:10:10.256Z,99.90
2019-03-13T07:11:25.746Z,99.90
2019-03-13T07:12:38.336Z,99.90
2019-03-13T07:14:01.589Z,99.90
2019-03-13T07:15:19.095Z,99.90
2019-03-13T07:16:41.698Z,99.90
2019-03-13T07:18:11.757Z,99.90
2019-03-13T07:19:34.160Z,99.90
2019-03-13T07:21:00.705Z,99.90
2019-03-13T07:22:15.011Z,99.90
2019-03-13T07:23:53.940Z,99.90
2019-03-13T07:25:13.128Z,99.90
2019-03-13T07:26:44.540Z,99.90
2019-03-13T07:28:11.264Z,99.90
2019-03-13T07:29:34.100Z,99.90
2019-03-13T07:30:53.236Z,99.90
2019-03-13T07:32:23.391Z,99.90
2019-03-13T07:33:40.099Z,99.90
2019-03-13T07:35:00.840Z,99.90
2019-03-13T07:36:15.881Z,99.90
2019-03-13T07:37:36.806Z,99.90
2019-03-13T07:39:14.971Z,99.90
2019-03-13T07:40:29.474Z,99.90
2019-03-13T07:41:55.506Z,99.90
2019-03-13T07:43:31.521Z,99.90
2019-03-13T07:44:46.616Z,99.90
2019-03-13T07:46:07.140Z,99.90
2019-03-13T07:47:24.204Z,99.90
2019-03-13T07:48:37.016Z,99.90
2019-03-13T07:49:59.727Z,99.90
2019-03-13T07:51:28.828Z,99.90
2019-03-13T07:52:44.695Z,99.90
2019-03-13T07:54:11.554Z,99.90
2019-03-13T07:55:29.096Z,99.90
2019-03-13T07:57:08.288Z,99.90
2019-03-13T07:58:24.181Z,99.90
2019-03-13T07:59:45.471Z,99.60
2019-03-13T08:01:08.199Z,99.10
2019-03-13T08:02:18.535Z,98.90
2019-03-13T08:03:38.767Z,98.40
2019-03-13T08:05:01.797Z,98.10
2019-03-13T08:06:30.997Z,97.80
2019-03-13T08:07:53.760Z,98.20
2019-03-13T08:09:07.526Z,98.20
2019-03-13T08:10:22.053Z,98.00
2019-03-13T08:11:35.297Z,98.10
2019-03-13T08:12:57.021Z,98.30
2019-03-13T08:14:08.309Z,98.10
2019-03-13T08:15:35.025Z,97.70
2019-03-13T08:17:07.856Z,97.60
2019-03-13T08:18:18.900Z,97.80
2019-03-13T08:19:42.978Z,97.70
2019-03-13T08:21:05.600Z,97.90
2019-03-13T08:22:32.140Z,98.20
2019-03-13T08:23:53.459Z,98.10
2019-03-13T08:25:15.884Z,97.10
2019-03-13T08:26:32.602Z,96.40
2019-03-13T08:27:59.746Z,95.80
2019-03-13T08:29:20.520Z,95.60
2019-03-13T08:30:37.082Z,95.30
2019-03-13T08:31:59.776Z,94.90
2019-03-13T08:33:29.891Z,94.60
2019-03-13T08:34:42.741Z,94.40
2019-03-13T08:36:06.490Z,94.50
2019-03-13T08:37:27.215Z,94.70
2019-03-13T08:38:54.147Z,94.50
2019-03-13T08:40:11.531Z,94.90
2019-03-13T08:41:22.713Z,95.30
2019-03-13T08:42:47.075Z,96.00
2019-03-13T08:44:11.090Z,95.80
2019-03-13T08:45:34.056Z,95.30
2019-03-13T08:47:07.064Z,95.70
2019-03-13T08:48:26.968Z,95.50
2019-03-13T08:49:49.510Z,95.80
2019-03-13T08:51:03.344Z,95.70
2019-03-13T08:52:45.667Z,96.00
2019-03-13T08:54:08.657Z,95.60
2019-03-13T08:55:22.014Z,95.50
2019-03-13T08:56:39.609Z,95.80
2019-03-13T08:57:49.249Z,95.50
2019-03-13T08:59:01.696Z,95.70
2019-03-13T09:00:21.789Z,95.20
2019-03-13T09:01:44.575Z,95.50
2019-03-13T09:02:56.674Z,95.80
2019-03-13T09:04:08.019Z,95.60
2019-03-13T09:05:30.583Z,95.50
2019-03-13T09:06:57.927Z,95.90
2019-03-13T09:08:36.828Z,96.00
2019-03-13T09:09:49.287Z,96.30
2019-03-13T09:11:11.793Z,96.10
2019-03-13T09:12:41.997Z,96.00
2019-03-13T09:13:57.459Z,95.90
2019-03-13T09:15:14.628Z,95.30
2019-03-13T09:16:45.299Z,95.50
2019-03-13T09:18:09.007Z,95.50
2019-03-13T09:19:41.460Z,95.60
2019-03-13T09:21:26.023Z,96.00
2019-03-13T09:22:49.870Z,96.10
2019-03-13T09:24:13.604Z,95.80
2019-03-13T09:25:37.319Z,96.00
2019-03-13T09:26:56.082Z,95.70
2019-03-13T09:28:19.956Z,95.60
2019-03-13T09:29:37.142Z,95.90
2019-03-13T09:31:04.491Z,95.40
2019-03-13T09:32:18.782Z,95.60
2019-03-13T09:33:30.358Z,95.10
2019-03-13T09:34:54.241Z,94.60
2019-03-13T09:36:31.201Z,94.30
2019-03-13T09:37:54.302Z,94.00
2019-03-13T09:39:10.518Z,94.50
2019-03-13T09:40:40.855Z,94.80
2019-03-13T09:41:53.862Z,94.80
2019-03-13T09:43:13.805Z,94.30
2019-03-13T09:44:52.940Z,94.60
2019-03-13T09:46:06.737Z,94.30
2019-03-13T09:47:51.997Z,94.20
2019-03-13T09:49:07.527Z,94.50
2019-03-13T09:50:43.438Z,94.80
2019-03-13T09:51:59.874Z,94.70
2019-03-13T09:53:10.980Z,94.40
2019-03-13T09:54:34.085Z,94.30
2019-03-13T09:55:54.994Z,94.10
2019-03-13T09:57:17.623Z,93.80
2019-03-13T09:58:46.159Z,93.80
2019-03-13T10:00:06.908Z,94.10
2019-03-13T10:01:21.390Z,94.30
2019-03-13T10:02:38.576Z,94.20
2019-03-13T10:04:07.987Z,94.00
2019-03-13T10:05:25.872Z,93.80
2019-03-13T10:06:40.395Z,93.60
2019-03-13T10:07:53.041Z,93.50
2019-03-13T10:09:35.499Z,93.80
2019-03-13T10:10:46.508Z,93.80
2019-03-13T10:12:14.080Z,94.10
2019-03-13T10:13:42.200Z,93.70
2019-03-13T10:15:18.453Z,93.10
2019-03-13T10:16:41.018Z,93.00
2019-03-13T10:18:03.570Z,93.00
2019-03-13T10:19:21.246Z,93.60
2019-03-13T10:20:45.181Z,93.80
2019-03-13T10:21:59.997Z,93.50
2019-03-13T10:23:23.680Z,93.20
2019-03-13T10:24:59.854Z,93.40
2019-03-13T10:26:23.580Z,93.40
2019-03-13T10:27:39.812Z,93.30
2019-03-13T10:28:53.510Z,93.50
2019-03-13T10:30:17.048Z,93.30
2019-03-13T10:31:38.533Z,92.90
2019-03-13T10:32:52.896Z,93.40
2019-03-13T10:34:19.742Z,93.00
2019-03-13T10:35:44.162Z,93.10
2019-03-13T10:37:07.552Z,93.00
2019-03-13T10:38:29.995Z,92.90
2019-03-13T10:40:00.048Z,92.80
2019-03-13T10:41:18.135Z,93.10
2019-03-13T10:42:48.042Z,93.20
2019-03-13T10:44:06.452Z,92.50
2019-03-13T10:45:20.817Z,92.40
2019-03-13T10:46:58.004Z,92.40
2019-03-13T10:48:16.808Z,92.10
2019-03-13T10:49:30.718Z,91.90
2019-03-13T10:50:57.520Z,91.70
2019-03-13T10:52:13.419Z,91.80
2019-03-13T10:53:37.147Z,91.50
2019-03-13T10:54:52.243Z,91.70
2019-03-13T10:56:16.049Z,92.00
2019-03-13T10:57:45.681Z,92.00
2019-03-13T10:58:58.809Z,92.00
2019-03-13T11:00:14.001Z,92.20
2019-03-13T11:01:40.855Z,91.90
2019-03-13T11:03:07.580Z,92.00
2019-03-13T11:04:29.966Z,92.00
2019-03-13T11:05:45.586Z,91.50
2019-03-13T11:07:00.581Z,91.60
2019-03-13T11:08:17.914Z,91.70
2019-03-13T11:09:40.444Z,91.70
2019-03-13T11:10:54.984Z,91.80
2019-03-13T11:12:30.956Z,92.10
2019-03-13T11:14:15.564Z,91.70
2019-03-13T11:15:22.000Z,91.80
2019-03-13T11:16:41.789Z,91.80
2019-03-13T11:17:54.755Z,92.00
2019-03-13T11:19:09.423Z,91.90
2019-03-13T11:20:45.419Z,91.80
2019-03-13T11:22:08.646Z,91.40
2019-03-13T11:23:50.543Z,90.50
2019-03-13T11:25:02.728Z,90.40
2019-03-13T11:26:29.479Z,90.40
2019-03-13T11:27:55.996Z,90.50
2019-03-13T11:29:15.564Z,90.50
2019-03-13T11:30:44.232Z,90.40
2019-03-13T11:31:56.865Z,90.20
2019-03-13T11:33:19.255Z,90.60
2019-03-13T11:34:47.440Z,91.20
2019-03-13T11:36:25.515Z,91.20
2019-03-13T11:38:01.161Z,91.20
2019-03-13T11:39:18.925Z,91.50
2019-03-13T11:40:52.800Z,91.50
2019-03-13T11:42:22.526Z,91.40
2019-03-13T11:43:34.035Z,91.20
2019-03-13T11:44:44.812Z,90.90
2019-03-13T11:46:16.255Z,90.70
2019-03-13T11:47:41.355Z,90.70
2019-03-13T11:48:49.780Z,90.90
2019-03-13T11:50:00.757Z,91.00
2019-03-13T11:51:25.000Z,91.10
2019-03-13T11:52:53.935Z,90.90
2019-03-13T11:54:08.232Z,91.00
2019-03-13T11:55:21.491Z,90.90
2019-03-13T11:56:45.418Z,91.30
2019-03-13T11:58:11.948Z,91.20
2019-03-13T11:59:33.831Z,90.70
2019-03-13T12:00:56.571Z,90.70
2019-03-13T12:02:19.132Z,91.00
2019-03-13T12:03:41.679Z,91.10
2019-03-13T12:05:05.614Z,91.20
2019-03-13T12:06:29.364Z,91.20
2019-03-13T12:07:52.076Z,91.30
2019-03-13T12:09:18.646Z,91.20
2019-03-13T12:10:30.542Z,91.40
2019-03-13T12:11:53.004Z,91.30
2019-03-13T12:13:17.018Z,91.40
2019-03-13T12:14:30.196Z,91.40
2019-03-13T12:15:54.127Z,91.40
2019-03-13T12:17:16.289Z,91.30
2019-03-13T12:18:38.865Z,91.70
2019-03-13T12:20:09.629Z,91.60
2019-03-13T12:21:21.786Z,91.60
2019-03-13T12:22:54.747Z,91.80
2019-03-13T12:24:20.981Z,91.30
2019-03-13T12:25:43.511Z,91.40
2019-03-13T12:26:55.068Z,91.50
2019-03-13T12:28:07.037Z,91.00
2019-03-13T12:29:25.023Z,91.00
2019-03-13T12:30:39.666Z,90.90
2019-03-13T12:31:53.939Z,90.70
2019-03-13T12:33:17.728Z,91.20
2019-03-13T12:34:28.406Z,91.20
2019-03-13T12:35:46.897Z,90.90
2019-03-13T12:37:06.805Z,90.70
2019-03-13T12:38:27.805Z,91.10
2019-03-13T12:39:57.740Z,90.80
2019-03-13T12:41:14.703Z,90.70
2019-03-13T12:42:25.408Z,90.80
2019-03-13T12:43:47.166Z,91.00
2019-03-13T12:44:59.378Z,90.70
2019-03-13T12:46:31.306Z,90.70
2019-03-13T12:47:48.068Z,90.80
2019-03-13T12:49:17.994Z,90.60
2019-03-13T12:50:34.343Z,90.70
2019-03-13T12:51:55.744Z,90.50
2019-03-13T12:53:09.072Z,90.40
2019-03-13T12:54:31.784Z,90.50
2019-03-13T12:55:52.438Z,90.50
2019-03-13T12:57:22.965Z,90.80
2019-03-13T12:58:47.493Z,90.70
2019-03-13T13:00:02.306Z,90.90
2019-03-13T13:01:25.795Z,90.70
2019-03-13T13:02:49.527Z,90.70
2019-03-13T13:04:05.184Z,91.20
2019-03-13T13:05:29.394Z,91.10
2019-03-13T13:06:51.887Z,90.80
2019-03-13T13:08:14.480Z,90.60
2019-03-13T13:09:53.619Z,91.00
2019-03-13T13:11:27.435Z,90.90
2019-03-13T13:12:46.336Z,90.70
2019-03-13T13:14:08.926Z,90.60
2019-03-13T13:15:39.463Z,90.90
2019-03-13T13:17:02.346Z,90.70
2019-03-13T13:18:14.219Z,90.70
2019-03-13T13:19:18.797Z,90.80
2019-03-13T13:20:24.204Z,90.50
2019-03-13T13:21:29.083Z,90.70
2019-03-13T13:22:33.678Z,90.60
2019-03-13T13:23:38.393Z,90.60
2019-03-13T13:24:42.981Z,90.70
2019-03-13T13:25:47.573Z,90.70
2019-03-13T13:26:53.029Z,90.70
2019-03-13T13:27:57.710Z,90.80
2019-03-13T13:29:02.289Z,90.80
2019-03-13T13:30:07.875Z,90.70
2019-03-13T13:31:12.854Z,90.60
2019-03-13T13:32:17.774Z,90.30
2019-03-13T13:33:23.839Z,90.40
2019-03-13T13:34:28.425Z,90.40
2019-03-13T13:35:33.004Z,90.50
2019-03-13T13:36:37.588Z,90.50
2019-03-13T13:37:42.280Z,91.00
2019-03-13T13:38:46.987Z,90.50
2019-03-13T13:39:51.646Z,90.60
2019-03-13T13:40:56.253Z,90.60
2019-03-13T13:42:00.845Z,90.90
2019-03-13T13:43:05.516Z,90.60
2019-03-13T13:44:10.561Z,90.80
2019-03-13T13:45:38.001Z,90.90
2019-03-13T13:46:44.572Z,90.80
2019-03-13T13:47:48.982Z,90.90
2019-03-13T13:48:53.580Z,90.90
2019-03-13T13:50:00.008Z,90.90
2019-03-13T13:51:04.491Z,91.00
2019-03-13T13:52:09.053Z,90.80
2019-03-13T13:53:13.631Z,91.00
2019-03-13T13:54:18.268Z,91.00
2019-03-13T13:55:22.840Z,91.10
2019-03-13T13:56:27.411Z,91.40
2019-03-13T13:57:32.032Z,91.40
2019-03-13T13:58:36.654Z,91.20
2019-03-13T13:59:41.245Z,91.10
2019-03-13T14:00:45.816Z,91.10
2019-03-13T14:01:50.355Z,91.10
2019-03-13T14:02:54.934Z,91.20
2019-03-13T14:04:01.678Z,91.10
2019-03-13T14:05:06.288Z,91.00
2019-03-13T14:06:10.894Z,91.10
2019-03-13T14:07:15.499Z,91.20
2019-03-13T14:08:20.100Z,90.90
2019-03-13T14:09:24.988Z,91.20
2019-03-13T14:10:29.618Z,91.00
2019-03-13T14:11:34.239Z,91.00
2019-03-13T14:12:38.885Z,90.80
2019-03-13T14:13:45.367Z,91.10
2019-03-13T14:14:50.091Z,90.90
2019-03-13T14:15:54.779Z,91.00
2019-03-13T14:16:59.503Z,90.80
2019-03-13T14:18:04.187Z,90.80
2019-03-13T14:19:08.774Z,91.00
2019-03-13T14:20:13.579Z,91.20
2019-03-13T14:21:18.411Z,91.30
2019-03-13T14:22:23.007Z,91.10
2019-03-13T14:23:27.567Z,91.30
2019-03-13T14:24:32.202Z,91.40
2019-03-13T14:25:36.872Z,91.20
2019-03-13T14:26:41.456Z,91.20
2019-03-13T14:27:46.035Z,91.40
2019-03-13T14:28:50.620Z,91.30
2019-03-13T14:29:55.183Z,91.40
2019-03-13T14:31:00.056Z,91.40
2019-03-13T14:32:04.652Z,91.60
2019-03-13T14:33:09.191Z,91.50
2019-03-13T14:34:13.814Z,91.40
2019-03-13T14:35:18.546Z,91.50
2019-03-13T14:36:24.108Z,91.70
2019-03-13T14:37:29.091Z,91.70
2019-03-13T14:38:33.666Z,91.90
2019-03-13T14:39:38.263Z,91.80
2019-03-13T14:40:43.084Z,91.70
2019-03-13T14:41:47.648Z,91.80
2019-03-13T14:42:52.291Z,91.60
2019-03-13T14:43:56.913Z,91.60
2019-03-13T14:45:01.485Z,91.70
2019-03-13T14:46:06.361Z,91.70
2019-03-13T14:47:10.947Z,91.70
2019-03-13T14:48:15.593Z,91.80
2019-03-13T14:49:20.248Z,91.80
2019-03-13T14:50:24.809Z,91.60
2019-03-13T14:51:29.382Z,91.70
2019-03-13T14:52:34.060Z,91.60
2019-03-13T14:53:38.704Z,91.80
2019-03-13T14:54:43.279Z,91.60
2019-03-13T14:55:47.944Z,91.40
2019-03-13T14:56:52.633Z,91.40
2019-03-13T14:57:57.287Z,91.60
2019-03-13T14:59:02.249Z,91.70
2019-03-13T15:00:09.905Z,91.90
2019-03-13T15:01:14.579Z,91.80
2019-03-13T15:02:19.285Z,92.10
2019-03-13T15:03:23.885Z,91.80
2019-03-13T15:04:28.447Z,91.80
2019-03-13T15:05:33.131Z,91.90
2019-03-13T15:06:38.888Z,92.00
2019-03-13T15:07:43.777Z,91.90
2019-03-13T15:08:48.391Z,91.80
2019-03-13T15:09:53.038Z,91.70
2019-03-13T15:10:57.620Z,91.90
2019-03-13T15:12:03.244Z,91.80
2019-03-13T15:13:07.828Z,92.00
2019-03-13T15:14:12.440Z,92.00
2019-03-13T15:15:17.187Z,92.30
2019-03-13T15:16:21.952Z,92.00
2019-03-13T15:17:29.616Z,92.20
2019-03-13T15:18:35.312Z,92.20